Accueil
METAR-TAF:

METAR-TAF

Aéroports :

Aéroport international Prince Saïd Ibrahim

Moroni, Comores

latitude: 11-32S, longitude: 043-16E, altitude: 29 m

Observation

Le bulletin a été fait il y a 2 heures et 54 minutes, à 11:00 UTC
Vent 21 kt de sud/sud-ouest
Température 31°C
Humidité 55%
Pression 1011 hPa
Visibilité 10 km ou plus
Quelques nuages à une hauteur de 2400 ft

METAR: FMCH 061100Z 21021KT 9999 FEW024 31/21 Q1011 NOSIG

Heure: 16:54 (13:54 UTC)

Prévision

Le bulletin a été fait il y a 2 heures et 54 minutes, à 11:00 UTC
Prévision valable du 06 à 12 UTC au 07 à 18 UTC
Vent 20 kt de sud/sud-ouest
Visibilité 10 km ou plus
Quelques nuages à une hauteur de 2000 ft
Evoluant progressivement
du 06 à 15 UTC au 06 à 17 UTC
Vent 5 kt de est/sud-est
Evoluant progressivement
du 07 à 05 UTC au 07 à 07 UTC
Vent 15 kt de sud/sud-ouest

TAF: FMCH 061100Z 0612/0718 20020KT 9999 FEW020 BECMG 0615/0617 12005KT BECMG 0705/0707 20015KT

Observations et prévisions météorologiques de plus de 4000 aéroports (messages METAR et TAF).

Les stations disponibles sont représentées par des disques jaunes et rouges sur la carte.

Passer la souris dessus pour voir le nom de la station.

Cliquer dessus pour voir les observations et prévisions météorologiques.

Pour changer de carte: cliquez sur les boutons verts avec une croix noire pour zoomer, sur le bouton vert avec un tiret pour effectuer un zoom arrière, ou sur les flèches vertes pour les cartes adjacentes.


METAR-TAF: